Time;durP1;ratioP1;P1;durP2;ratioP2;P2;SDS_P1;SDS_P2;PMS_P1;PMS_P2;Temp;Humidity;BMP_temperature;BMP_pressure;BME280_temperature;BME280_humidity;BME280_pressure;Samples;Min_cycle;Max_cycle;Signal;HPM_P1;HPM_P2
2021/11/27 00:00:30;;;;;;;19.93;14.90;;;;;;;1.81;86.74;96390.67;2268181;78;20924;-80
2021/11/27 00:03:32;;;;;;;17.87;13.03;;;;;;;1.74;86.95;96396.63;2236924;78;20943;-82
2021/11/27 00:06:33;;;;;;;19.80;15.07;;;;;;;1.67;87.08;96406.41;2267960;78;20935;-81
2021/11/27 00:09:34;;;;;;;20.77;13.93;;;;;;;1.61;87.01;96402.50;2262749;78;21019;-82
2021/11/27 00:12:34;;;;;;;19.23;14.40;;;;;;;1.59;87.44;96409.34;2254122;79;20995;-82
2021/11/27 00:15:35;;;;;;;18.73;14.67;;;;;;;1.50;87.69;96402.41;2254194;79;20920;-81
2021/11/27 00:18:36;;;;;;;18.03;13.93;;;;;;;1.48;87.69;96405.83;2254266;79;20959;-82
2021/11/27 00:21:36;;;;;;;20.47;14.80;;;;;;;1.42;87.80;96405.34;2254225;79;21039;-81
2021/11/27 00:24:37;;;;;;;18.27;15.17;;;;;;;1.36;87.79;96409.58;2253898;79;20996;-80
2021/11/27 00:27:38;;;;;;;22.30;14.93;;;;;;;1.29;88.05;96399.67;2254442;79;21013;-80
2021/11/27 00:30:38;;;;;;;19.37;13.33;;;;;;;1.24;88.54;96407.34;2253943;79;21394;-81
2021/11/27 00:33:39;;;;;;;19.43;14.80;;;;;;;1.18;88.85;96407.28;2253651;79;20959;-81
2021/11/27 00:36:39;;;;;;;19.03;13.10;;;;;;;1.14;88.52;96412.38;2254178;79;20978;-80
2021/11/27 00:39:40;;;;;;;19.37;13.30;;;;;;;1.16;88.54;96417.97;2254247;78;21000;-80
2021/11/27 00:42:40;;;;;;;23.20;14.77;;;;;;;1.10;88.81;96408.91;2253675;79;20987;-80
2021/11/27 00:45:41;;;;;;;23.10;15.20;;;;;;;1.08;88.51;96415.75;2254048;79;21387;-81
2021/11/27 00:48:41;;;;;;;27.93;18.30;;;;;;;1.05;88.79;96413.15;2253740;79;20952;-82
2021/11/27 00:51:42;;;;;;;27.40;18.20;;;;;;;1.04;88.72;96412.70;2253633;79;21023;-81
2021/11/27 00:54:42;;;;;;;33.67;20.67;;;;;;;1.07;88.74;96424.72;2253973;79;21410;-82
2021/11/27 00:57:43;;;;;;;35.10;20.13;;;;;;;1.05;88.41;96420.86;2254309;79;20988;-80
2021/11/27 01:00:43;;;;;;;33.50;19.37;;;;;;;1.04;88.63;96424.27;2253972;79;20990;-81
2021/11/27 01:03:44;;;;;;;31.57;19.70;;;;;;;1.03;88.60;96426.83;2253829;79;20963;-82
2021/11/27 01:06:45;;;;;;;34.40;20.10;;;;;;;1.02;88.51;96427.25;2253600;79;21387;-81
2021/11/27 01:09:45;;;;;;;29.33;18.73;;;;;;;1.06;88.47;96428.14;2236877;79;21087;-82
2021/11/27 01:12:45;;;;;;;28.50;19.50;;;;;;;1.05;88.39;96431.12;2206597;81;20992;-81
2021/11/27 01:15:46;;;;;;;26.17;16.93;;;;;;;1.01;88.46;96434.52;2206841;81;21391;-81
2021/11/27 01:18:47;;;;;;;30.87;19.63;;;;;;;0.99;88.57;96430.20;2206959;81;20926;-81
2021/11/27 01:21:47;;;;;;;25.43;17.13;;;;;;;0.98;88.54;96429.34;2207047;81;20967;-82
2021/11/27 01:24:48;;;;;;;28.20;19.53;;;;;;;1.00;88.92;96440.92;2206948;81;20893;-81
2021/11/27 01:27:49;;;;;;;28.53;18.17;;;;;;;0.93;88.72;96439.57;2206812;81;21343;-81
2021/11/27 01:30:49;;;;;;;24.20;16.70;;;;;;;0.91;88.98;96442.97;2207112;81;20948;-81
2021/11/27 01:33:50;;;;;;;27.70;17.87;;;;;;;0.87;88.97;96442.50;2207118;81;20960;-81
2021/11/27 01:36:50;;;;;;;25.07;16.03;;;;;;;0.83;88.78;96446.70;2206889;81;20952;-81
2021/11/27 01:39:51;;;;;;;25.97;17.30;;;;;;;0.86;88.79;96453.16;2206864;79;21099;-81
2021/11/27 01:42:51;;;;;;;27.47;17.33;;;;;;;0.85;89.04;96455.70;2207147;81;21308;-82
2021/11/27 01:45:52;;;;;;;25.50;16.30;;;;;;;0.82;89.11;96454.39;2207349;81;20933;-81
2021/11/27 01:48:53;;;;;;;21.27;15.90;;;;;;;0.81;89.00;96455.23;2207045;81;20972;-81
2021/11/27 01:51:53;;;;;;;24.67;17.13;;;;;;;0.80;89.27;96453.09;2207042;81;21003;-81
2021/11/27 01:54:54;;;;;;;26.47;16.73;;;;;;;0.80;89.09;96455.66;2206964;81;21343;-80
2021/11/27 01:57:54;;;;;;;29.83;18.87;;;;;;;0.83;88.94;96457.39;2207049;81;20980;-81
2021/11/27 02:00:55;;;;;;;26.33;16.33;;;;;;;0.85;89.10;96462.13;2207058;81;20960;-81
2021/11/27 02:03:55;;;;;;;21.67;15.83;;;;;;;0.83;88.96;96462.11;2207011;81;20929;-79
2021/11/27 02:06:56;;;;;;;23.03;16.63;;;;;;;0.83;88.85;96454.83;2207773;81;21413;-78
2021/11/27 02:09:59;;;;;;;25.83;19.50;;;;;;;0.82;88.85;96460.81;2202627;79;21090;-81
2021/11/27 02:13:00;;;;;;;24.63;18.33;;;;;;;0.83;88.67;96463.39;2193129;81;20948;-79
2021/11/27 02:16:00;;;;;;;23.20;15.03;;;;;;;0.85;88.86;96465.98;2193654;81;20937;-79
2021/11/27 02:19:01;;;;;;;22.80;17.17;;;;;;;0.84;88.67;96465.55;2193651;81;20913;-81
2021/11/27 02:22:01;;;;;;;23.80;16.80;;;;;;;0.87;88.78;96459.19;2193490;81;20964;-80
2021/11/27 02:25:02;;;;;;;23.30;15.83;;;;;;;0.89;88.62;96458.78;2193340;81;21403;-80
2021/11/27 02:28:04;;;;;;;19.50;14.70;;;;;;;0.88;88.48;96448.07;2193755;81;20988;-83
2021/11/27 02:31:05;;;;;;;19.03;14.93;;;;;;;0.87;88.60;96456.63;2193570;81;20980;-80
2021/11/27 02:34:05;;;;;;;18.70;13.60;;;;;;;0.81;88.37;96449.67;2193670;81;20953;-80
2021/11/27 02:37:06;;;;;;;22.17;15.80;;;;;;;0.81;88.60;96447.53;2193716;81;20988;-81
2021/11/27 02:40:06;;;;;;;23.87;16.00;;;;;;;0.77;88.76;96453.05;2193567;81;20993;-80
2021/11/27 02:43:07;;;;;;;22.17;16.03;;;;;;;0.74;88.82;96454.72;2193721;81;20921;-81
2021/11/27 02:46:07;;;;;;;20.00;15.30;;;;;;;0.78;88.77;96459.05;2193626;81;21003;-81
2021/11/27 02:49:08;;;;;;;19.20;13.77;;;;;;;0.77;89.01;96457.33;2193622;81;20937;-81
2021/11/27 02:52:08;;;;;;;23.13;15.30;;;;;;;0.74;88.85;96459.44;2193508;81;20988;-79
2021/11/27 02:55:09;;;;;;;19.33;14.07;;;;;;;0.76;88.84;96464.59;2193704;81;20945;-80
2021/11/27 02:58:10;;;;;;;15.83;12.37;;;;;;;0.78;88.81;96458.63;2193414;81;20976;-82
2021/11/27 03:01:10;;;;;;;21.90;14.97;;;;;;;0.78;88.77;96470.61;2193443;81;20929;-79
2021/11/27 03:04:11;;;;;;;20.47;14.07;;;;;;;0.78;88.56;96470.61;2193413;81;20984;-81
2021/11/27 03:07:11;;;;;;;18.97;13.63;;;;;;;0.80;88.58;96470.20;2193665;81;21434;-81
2021/11/27 03:10:12;;;;;;;24.33;15.83;;;;;;;0.82;88.53;96466.81;2197888;80;21031;-80
2021/11/27 03:13:12;;;;;;;25.60;15.50;;;;;;;0.85;88.42;96471.12;2206631;80;21039;-80
2021/11/27 03:16:13;;;;;;;22.13;13.53;;;;;;;0.83;88.36;96471.09;2207127;81;20956;-81
2021/11/27 03:19:13;;;;;;;21.57;13.90;;;;;;;0.81;88.51;96461.66;2207019;81;20971;-81
2021/11/27 03:22:14;;;;;;;21.33;14.03;;;;;;;0.77;88.60;96468.45;2206919;81;21382;-80
2021/11/27 03:25:14;;;;;;;21.83;13.87;;;;;;;0.76;88.64;96474.86;2207249;81;20987;-80
2021/11/27 03:28:15;;;;;;;21.37;14.37;;;;;;;0.73;88.77;96474.41;2207252;81;20979;-81
2021/11/27 03:31:16;;;;;;;20.67;14.70;;;;;;;0.73;88.55;96474.41;2206958;81;21355;-81
2021/11/27 03:34:16;;;;;;;18.10;13.60;;;;;;;0.76;88.88;96477.01;2207114;81;21319;-81
2021/11/27 03:37:16;;;;;;;18.10;13.37;;;;;;;0.78;88.71;96483.45;2207259;81;20916;-82
2021/11/27 03:40:17;;;;;;;21.63;14.90;;;;;;;0.82;88.64;96489.92;2206848;81;21019;-80
2021/11/27 03:43:17;;;;;;;19.50;13.83;;;;;;;0.86;88.39;96500.67;2207105;81;20964;-81
2021/11/27 03:46:18;;;;;;;18.53;13.37;;;;;;;0.84;88.44;96506.63;2207282;81;21315;-81
2021/11/27 03:49:18;;;;;;;15.53;12.90;;;;;;;0.79;88.54;96521.98;2206671;81;21040;-79
2021/11/27 03:52:19;;;;;;;16.03;13.23;;;;;;;0.74;88.55;96519.78;2207004;81;20980;-82
2021/11/27 03:55:19;;;;;;;14.83;12.10;;;;;;;0.72;88.77;96530.88;2207126;81;20995;-81
2021/11/27 03:58:20;;;;;;;13.43;10.90;;;;;;;0.69;89.03;96530.83;2207134;81;21358;-80
2021/11/27 04:01:21;;;;;;;13.57;11.30;;;;;;;0.69;89.27;96533.41;2207017;81;20987;-80
2021/11/27 04:04:21;;;;;;;16.40;13.17;;;;;;;0.62;89.21;96542.30;2207266;81;20999;-80
2021/11/27 04:07:21;;;;;;;21.90;14.80;;;;;;;0.59;89.26;96551.25;2207053;81;21303;-80
2021/11/27 04:10:22;;;;;;;19.77;15.20;;;;;;;0.63;89.90;96557.29;2217357;78;21068;-80
2021/11/27 04:13:23;;;;;;;22.27;16.80;;;;;;;0.63;89.82;96568.84;2240893;79;21383;-81
2021/11/27 04:16:23;;;;;;;22.97;16.60;;;;;;;0.62;89.79;96569.69;2240989;79;20995;-81
2021/11/27 04:19:24;;;;;;;26.17;17.63;;;;;;;0.65;90.02;96580.00;2240687;79;20976;-80
2021/11/27 04:22:24;;;;;;;26.87;18.63;;;;;;;0.67;90.01;96584.73;2240961;79;21347;-83
2021/11/27 04:25:25;;;;;;;25.70;17.50;;;;;;;0.67;89.90;96587.30;2240760;79;20952;-80
2021/11/27 04:28:25;;;;;;;27.43;19.40;;;;;;;0.66;89.79;96584.71;2240675;79;21128;-80
2021/11/27 04:31:26;;;;;;;27.63;18.37;;;;;;;0.69;89.70;96587.32;2240754;79;21015;-80
2021/11/27 04:34:26;;;;;;;31.23;20.20;;;;;;;0.73;90.01;96600.64;2240810;79;21367;-80
2021/11/27 04:37:27;;;;;;;31.27;21.47;;;;;;;0.72;89.71;96594.64;2240844;79;20993;-81
2021/11/27 04:40:27;;;;;;;26.93;20.17;;;;;;;0.75;90.12;96596.39;2240382;79;21063;-82
2021/11/27 04:43:28;;;;;;;27.30;19.83;;;;;;;0.74;89.74;96603.23;2241032;79;20960;-81
2021/11/27 04:46:28;;;;;;;26.60;18.53;;;;;;;0.75;89.88;96606.67;2240777;79;21332;-83
2021/11/27 04:49:29;;;;;;;32.33;20.17;;;;;;;0.76;90.10;96610.96;2240515;79;20964;-82
2021/11/27 04:52:29;;;;;;;32.60;22.33;;;;;;;0.79;89.81;96635.41;2240617;79;21011;-80
2021/11/27 04:55:30;;;;;;;32.23;20.47;;;;;;;0.80;90.08;96635.42;2240630;79;20925;-81
2021/11/27 04:58:30;;;;;;;40.27;24.40;;;;;;;0.83;89.82;96631.62;2240302;79;21332;-80
2021/11/27 05:01:31;;;;;;;35.37;23.40;;;;;;;0.88;89.74;96636.84;2240172;79;21003;-80
2021/11/27 05:04:32;;;;;;;38.80;22.73;;;;;;;0.91;89.72;96641.61;2240471;79;20968;-81
2021/11/27 05:07:32;;;;;;;32.77;21.17;;;;;;;0.97;89.82;96643.82;2239576;79;20945;-81
2021/11/27 05:10:33;;;;;;;31.77;19.73;;;;;;;1.01;89.75;96654.16;2247446;78;21334;-81
2021/11/27 05:13:39;;;;;;;39.97;25.07;;;;;;;1.03;89.76;96649.91;2235255;78;21566;-80
2021/11/27 05:16:38;;;;;;;42.60;26.40;;;;;;;1.06;89.60;96661.52;2266100;78;21006;-80
2021/11/27 05:19:39;;;;;;;46.10;25.77;;;;;;;1.09;89.46;96663.26;2266997;78;20939;-80
2021/11/27 05:22:40;;;;;;;34.80;21.80;;;;;;;1.13;89.58;96662.45;2267674;78;20982;-79
2021/11/27 05:25:40;;;;;;;40.70;22.97;;;;;;;1.11;89.46;96657.72;2267704;78;20936;-79
2021/11/27 05:28:41;;;;;;;37.70;23.10;;;;;;;1.09;89.38;96669.26;2268201;78;21002;-81
2021/11/27 05:31:42;;;;;;;36.63;22.60;;;;;;;1.13;89.69;96680.02;2268220;78;21332;-81
2021/11/27 05:34:42;;;;;;;37.03;22.20;;;;;;;1.13;89.54;96668.46;2268173;78;20944;-79
2021/11/27 05:37:43;;;;;;;35.47;23.03;;;;;;;1.13;89.52;96672.31;2268303;78;20943;-81
2021/11/27 05:40:43;;;;;;;43.47;25.93;;;;;;;3.36;99.32;96657.74;2268152;77;21010;-80
2021/11/27 05:43:44;;;;;;;27.90;17.37;;;;;;;3.12;85.53;96664.48;2267471;78;21413;-82
2021/11/27 05:46:44;;;;;;;30.00;19.83;;;;;;;4.07;96.29;96666.20;2268228;78;20978;-82
2021/11/27 05:49:45;;;;;;;30.17;21.37;;;;;;;7.84;90.74;96651.14;2268582;78;20987;-81
2021/11/27 05:52:45;;;;;;;26.77;18.80;;;;;;;9.18;77.51;96645.28;2267879;78;20967;-81
2021/11/27 05:55:47;;;;;;;25.80;18.27;;;;;;;8.85;74.96;96657.98;2267179;78;21374;-81
2021/11/27 05:58:47;;;;;;;23.80;18.23;;;;;;;9.14;73.35;96663.14;2267061;78;20967;-81
2021/11/27 06:01:48;;;;;;;27.00;19.60;;;;;;;7.55;67.83;96678.27;2267596;78;20947;-81
2021/11/27 06:04:50;;;;;;;26.53;18.53;;;;;;;5.79;69.66;96685.53;2267233;78;21001;-82
2021/11/27 06:07:51;;;;;;;31.63;19.50;;;;;;;4.57;72.17;96692.16;2268279;78;20982;-82
2021/11/27 06:10:51;;;;;;;27.23;19.60;;;;;;;3.70;74.85;96706.09;2260901;78;21004;-82
2021/11/27 06:13:52;;;;;;;28.63;19.83;;;;;;;3.18;76.46;96706.20;2241016;79;20959;-82
2021/11/27 06:16:52;;;;;;;29.37;19.57;;;;;;;2.76;78.18;96708.04;2240694;79;20987;-82
2021/11/27 06:19:53;;;;;;;27.03;19.43;;;;;;;2.46;79.83;96707.31;2241639;79;20963;-84
2021/11/27 06:22:54;;;;;;;31.97;20.00;;;;;;;2.19;81.10;96707.48;2241475;79;21333;-82
2021/11/27 06:25:56;;;;;;;33.70;18.67;;;;;;;2.05;81.67;96712.05;2217746;79;20948;-82
2021/11/27 06:28:57;;;;;;;33.17;19.90;;;;;;;2.00;82.43;96708.56;2240537;79;20964;-84
2021/11/27 06:31:58;;;;;;;26.30;18.00;;;;;;;1.88;82.60;96717.01;2240395;79;20976;-82
2021/11/27 06:34:59;;;;;;;31.27;20.67;;;;;;;1.77;83.24;96711.73;2240501;79;20976;-82
2021/11/27 06:37:59;;;;;;;33.77;21.13;;;;;;;1.71;83.42;96710.34;2240907;79;20976;-82
2021/11/27 06:41:02;;;;;;;32.13;19.63;;;;;;;1.70;83.90;96719.33;2239679;79;21003;-82
2021/11/27 06:44:03;;;;;;;28.87;18.40;;;;;;;1.69;84.39;96732.61;2240715;79;20969;-82
2021/11/27 06:47:03;;;;;;;37.43;21.80;;;;;;;1.65;84.29;96743.70;2241332;79;20924;-83
2021/11/27 06:50:04;;;;;;;34.00;20.73;;;;;;;1.58;85.14;96753.05;2240938;79;20996;-82
2021/11/27 06:53:04;;;;;;;30.77;19.47;;;;;;;1.59;84.94;96750.05;2240837;79;21007;-83
2021/11/27 06:56:05;;;;;;;28.97;17.90;;;;;;;1.65;85.07;96752.70;2240991;79;20968;-84
2021/11/27 06:59:06;;;;;;;27.27;16.87;;;;;;;1.71;84.98;96752.78;2240654;79;21008;-83
2021/11/27 07:02:08;;;;;;;26.30;17.27;;;;;;;1.77;84.95;96758.03;2172369;82;21003;-84
2021/11/27 07:05:09;;;;;;;28.57;17.63;;;;;;;1.77;84.85;96764.47;2088886;85;21488;-82
2021/11/27 07:08:09;;;;;;;28.53;18.13;;;;;;;1.81;84.83;96767.52;2172210;82;21825;-82
2021/11/27 07:11:10;;;;;;;26.37;16.73;;;;;;;1.84;84.72;96776.98;2088231;85;21039;-82
2021/11/27 07:14:10;;;;;;;24.33;15.60;;;;;;;1.86;84.81;96792.87;2172958;82;21012;-82
2021/11/27 07:17:11;;;;;;;23.07;15.27;;;;;;;1.88;84.80;96792.90;2088506;85;20991;-84
2021/11/27 07:20:11;;;;;;;28.03;16.87;;;;;;;1.86;84.58;96796.73;2172965;82;21026;-81
2021/11/27 07:23:12;;;;;;;20.97;13.27;;;;;;;1.88;84.18;96798.91;2089255;85;20948;-82
2021/11/27 07:26:13;;;;;;;18.63;12.87;;;;;;;1.86;83.40;96797.16;2171935;82;20967;-82
2021/11/27 07:29:13;;;;;;;27.70;15.87;;;;;;;1.86;83.15;96794.16;2086378;85;21014;-83
2021/11/27 07:32:14;;;;;;;27.30;16.37;;;;;;;1.83;83.23;96797.98;2123751;83;21015;-82
2021/11/27 07:35:14;;;;;;;25.43;15.10;;;;;;;1.83;83.86;96799.69;2171779;82;20980;-83
2021/11/27 07:41:17;;;;;;;21.97;14.70;;;;;;;1.95;83.99;96792.55;2170868;82;21123;-83
2021/11/27 07:44:18;;;;;;;25.73;15.20;;;;;;;1.96;83.75;96798.14;2089502;85;21036;-83
2021/11/27 07:47:18;;;;;;;22.43;14.53;;;;;;;1.95;83.70;96802.42;2123388;83;20979;-82
2021/11/27 07:50:19;;;;;;;20.50;13.10;;;;;;;2.01;83.60;96804.21;2113649;84;21575;-83
2021/11/27 07:53:20;;;;;;;22.60;14.00;;;;;;;2.07;83.36;96807.72;2172421;82;21532;-82
2021/11/27 07:56:20;;;;;;;15.73;11.90;;;;;;;2.07;83.18;96815.87;2090261;85;21003;-82
2021/11/27 07:59:21;;;;;;;20.07;13.80;;;;;;;2.14;82.93;96816.38;2229411;79;20975;-83
2021/11/27 08:02:22;;;;;;;23.37;14.67;;;;;;;2.14;82.40;96816.38;2248605;79;21007;-83
2021/11/27 08:05:23;;;;;;;28.00;18.20;;;;;;;2.11;82.08;96822.78;2248036;79;20901;-83
2021/11/27 08:08:23;;;;;;;23.83;16.03;;;;;;;2.09;82.64;96830.91;2248199;79;20960;-82
2021/11/27 08:11:27;;;;;;;21.60;14.43;;;;;;;2.07;82.79;96822.30;2254870;78;21106;-82
2021/11/27 08:14:31;;;;;;;24.37;14.57;;;;;;;2.15;82.47;96823.27;2267529;78;20954;-81
2021/11/27 08:17:30;;;;;;;23.60;14.53;;;;;;;2.19;82.48;96832.75;2267661;78;21342;-83
2021/11/27 08:20:30;;;;;;;31.67;15.90;;;;;;;2.23;82.20;96830.66;2267979;78;21003;-82
2021/11/27 08:23:31;;;;;;;25.00;14.70;;;;;;;2.27;82.75;96837.56;2268416;78;21331;-83
2021/11/27 08:26:32;;;;;;;20.00;12.80;;;;;;;2.31;82.76;96835.47;2268994;78;20964;-84
2021/11/27 08:29:32;;;;;;;23.30;14.93;;;;;;;2.33;82.54;96841.92;2236100;78;20982;-83
2021/11/27 08:32:39;;;;;;;28.07;16.40;;;;;;;2.30;82.17;96847.03;2267818;78;21374;-83
2021/11/27 08:35:43;;;;;;;23.33;14.37;;;;;;;2.34;82.43;96848.80;2267690;78;21039;-82
2021/11/27 08:38:52;;;;;;;23.03;15.73;;;;;;;2.43;82.24;96862.65;2250433;78;21085;-83
2021/11/27 08:41:52;;;;;;;18.27;13.67;;;;;;;2.57;81.86;96867.96;2267901;78;21010;-83
2021/11/27 08:44:53;;;;;;;19.83;13.23;;;;;;;2.67;81.65;96871.11;2267451;78;20975;-81
2021/11/27 08:47:55;;;;;;;15.80;11.23;;;;;;;2.77;81.72;96878.09;2236374;78;20999;-82
2021/11/27 08:50:57;;;;;;;15.17;9.93;;;;;;;2.86;81.11;96880.77;2268372;79;21034;-84
2021/11/27 08:53:58;;;;;;;16.70;10.70;;;;;;;2.80;80.35;96886.28;2268535;78;21445;-81
2021/11/27 08:56:59;;;;;;;16.77;11.77;;;;;;;2.73;80.34;96887.06;2268509;78;20963;-83
2021/11/27 09:00:00;;;;;;;18.77;12.37;;;;;;;2.72;81.09;96887.91;2268263;78;20970;-83
2021/11/27 09:03:00;;;;;;;16.30;11.70;;;;;;;2.80;81.30;96898.73;2268354;78;21657;-84
2021/11/27 09:06:01;;;;;;;15.20;11.47;;;;;;;2.90;81.26;96903.99;2269803;78;21008;-83
2021/11/27 09:09:02;;;;;;;19.07;13.20;;;;;;;2.97;80.91;96903.20;2268715;78;20951;-82
2021/11/27 09:12:02;;;;;;;15.30;12.10;;;;;;;3.02;81.39;96904.13;2262584;78;21406;-83
2021/11/27 09:15:03;;;;;;;18.63;11.57;;;;;;;2.99;80.75;96901.52;2255327;79;20991;-84
2021/11/27 09:18:03;;;;;;;14.40;11.10;;;;;;;2.95;80.29;96895.46;2256004;79;20983;-83
2021/11/27 09:21:04;;;;;;;15.63;12.10;;;;;;;2.95;80.51;96896.75;2256352;79;21007;-83
2021/11/27 09:24:04;;;;;;;16.40;11.70;;;;;;;3.00;80.72;96900.66;2255669;79;20963;-82
2021/11/27 09:27:05;;;;;;;16.27;11.30;;;;;;;3.00;80.28;96908.39;2254981;79;20920;-83
2021/11/27 09:30:06;;;;;;;16.87;11.47;;;;;;;3.02;79.72;96915.72;2254293;79;20968;-83
2021/11/27 09:33:06;;;;;;;14.50;10.40;;;;;;;2.96;79.71;96914.37;2254522;79;20963;-81
2021/11/27 09:36:09;;;;;;;16.63;12.13;;;;;;;2.92;79.42;96916.05;2254690;79;20999;-82
2021/11/27 09:39:10;;;;;;;17.90;12.50;;;;;;;2.92;80.11;96917.34;2254688;79;21019;-81
2021/11/27 09:42:10;;;;;;;18.60;12.20;;;;;;;3.03;80.10;96914.45;2254572;79;20932;-82
2021/11/27 09:45:11;;;;;;;18.17;12.47;;;;;;;3.16;80.22;96908.98;2254559;79;20963;-83
2021/11/27 09:48:12;;;;;;;17.00;12.33;;;;;;;3.30;79.89;96910.41;2253502;79;21030;-81
2021/11/27 09:51:12;;;;;;;20.70;13.47;;;;;;;3.40;79.34;96906.64;2253947;79;20946;-81
2021/11/27 09:54:17;;;;;;;21.60;13.57;;;;;;;3.40;79.38;96907.93;2254206;79;21003;-82
2021/11/27 09:57:15;;;;;;;23.63;14.93;;;;;;;3.49;79.27;96912.34;2254135;79;21003;-83
2021/11/27 10:00:16;;;;;;;26.07;15.10;;;;;;;3.56;79.06;96906.37;2255009;79;20991;-82
2021/11/27 10:03:16;;;;;;;22.63;14.33;;;;;;;3.58;78.38;96894.36;2254654;79;20955;-81
2021/11/27 10:06:17;;;;;;;22.37;14.73;;;;;;;3.67;78.86;96898.30;2254765;79;20944;-81
2021/11/27 10:09:18;;;;;;;24.20;14.43;;;;;;;3.75;78.76;96900.51;2253923;79;20967;-82
2021/11/27 10:12:18;;;;;;;19.23;14.23;;;;;;;3.86;78.43;96897.14;2232701;79;20996;-82
2021/11/27 10:15:19;;;;;;;21.80;13.63;;;;;;;3.93;77.93;96895.90;2206244;81;21351;-81
2021/11/27 10:18:20;;;;;;;22.27;13.97;;;;;;;3.95;78.11;96903.23;2206695;81;20983;-81
2021/11/27 10:21:20;;;;;;;21.30;13.77;;;;;;;4.02;77.99;96899.83;2206542;81;20936;-82
2021/11/27 10:24:21;;;;;;;20.17;13.47;;;;;;;4.09;77.59;96900.73;2206475;81;21000;-82
2021/11/27 10:27:22;;;;;;;24.70;16.07;;;;;;;4.19;77.66;96905.09;2206776;81;20984;-81
2021/11/27 10:30:23;;;;;;;26.70;16.33;;;;;;;4.12;77.36;96903.33;2206973;81;20961;-83
2021/11/27 10:33:23;;;;;;;29.03;17.10;;;;;;;4.16;77.68;96903.36;2206766;81;21011;-81
2021/11/27 10:36:24;;;;;;;22.47;15.43;;;;;;;4.20;77.59;96905.95;2208059;81;20944;-83
2021/11/27 10:39:24;;;;;;;23.80;15.63;;;;;;;4.22;77.43;96905.11;2207569;80;20944;-81
2021/11/27 10:45:28;;;;;;;25.90;17.37;;;;;;;4.44;77.25;96905.70;2185487;81;21403;-82
2021/11/27 10:48:29;;;;;;;26.67;16.90;;;;;;;4.57;77.38;96907.05;2207799;81;20999;-82
2021/11/27 10:51:30;;;;;;;22.73;16.20;;;;;;;4.69;76.96;96904.51;2207229;81;20995;-82
2021/11/27 10:54:31;;;;;;;26.70;16.57;;;;;;;4.77;76.76;96903.67;2205795;81;21041;-80
2021/11/27 10:57:31;;;;;;;25.60;16.93;;;;;;;4.75;76.57;96901.95;2205783;81;21019;-80
2021/11/27 11:00:32;;;;;;;28.50;17.73;;;;;;;4.77;76.97;96908.84;2205591;81;20967;-81
2021/11/27 11:03:33;;;;;;;29.90;18.93;;;;;;;4.86;77.05;96905.43;2206090;81;21671;-83
2021/11/27 11:06:34;;;;;;;50.53;26.47;;;;;;;4.95;76.76;96908.05;2206327;80;20956;-82
2021/11/27 11:09:34;;;;;;;52.00;28.17;;;;;;;4.92;76.36;96908.03;2206026;80;20988;-83
2021/11/27 11:12:35;;;;;;;47.97;27.83;;;;;;;4.93;76.71;96903.30;2229422;79;21071;-82
2021/11/27 11:15:37;;;;;;;44.30;28.47;;;;;;;4.99;75.86;96907.19;2255390;79;20988;-83
2021/11/27 11:18:38;;;;;;;43.37;26.53;;;;;;;4.93;75.92;96912.78;2254378;79;20972;-81
2021/11/27 11:21:38;;;;;;;41.80;25.77;;;;;;;4.93;75.88;96911.05;2253487;79;20964;-82
2021/11/27 11:24:39;;;;;;;43.00;28.87;;;;;;;4.93;75.31;96921.39;2254327;79;21015;-82
2021/11/27 11:27:45;;;;;;;37.93;24.10;;;;;;;4.97;75.89;96923.13;2255220;79;21323;-83
2021/11/27 11:30:45;;;;;;;34.97;22.20;;;;;;;5.08;75.72;96924.02;2253799;79;21023;-81
2021/11/27 11:33:47;;;;;;;28.90;20.07;;;;;;;5.12;74.87;96923.60;2253292;79;20995;-80
2021/11/27 11:36:47;;;;;;;39.93;22.70;;;;;;;5.23;73.90;96923.66;2253573;79;20959;-82
2021/11/27 11:39:48;;;;;;;38.13;24.80;;;;;;;5.32;74.41;96926.27;2255065;79;20972;-83
2021/11/27 11:42:49;;;;;;;36.83;22.80;;;;;;;5.44;74.92;96931.03;2256274;79;21002;-81
2021/11/27 11:45:49;;;;;;;32.50;21.30;;;;;;;5.48;74.39;96928.44;2256175;79;20964;-84
2021/11/27 11:48:50;;;;;;;28.53;21.27;;;;;;;5.35;73.87;96916.78;2255220;79;20984;-82
2021/11/27 11:51:50;;;;;;;29.33;19.77;;;;;;;5.43;73.32;96912.91;2255769;79;20983;-83
2021/11/27 11:54:51;;;;;;;29.60;20.77;;;;;;;5.95;73.51;96911.66;2254821;79;21414;-81
2021/11/27 11:57:52;;;;;;;28.57;19.40;;;;;;;5.92;72.84;96915.11;2256303;79;20979;-82
2021/11/27 12:00:52;;;;;;;36.80;26.90;;;;;;;5.80;71.92;96911.20;2254585;79;20991;-81
2021/11/27 12:03:53;;;;;;;29.20;19.67;;;;;;;5.86;71.64;96914.22;2255035;79;20983;-81
2021/11/27 12:06:54;;;;;;;31.00;20.77;;;;;;;5.87;70.98;96913.36;2254526;79;20920;-81
2021/11/27 12:09:54;;;;;;;27.07;20.23;;;;;;;5.71;70.79;96912.50;2254630;79;21066;-82
2021/11/27 12:12:55;;;;;;;26.80;18.40;;;;;;;5.58;71.48;96915.95;2255094;79;20972;-81
2021/11/27 12:15:56;;;;;;;26.93;19.37;;;;;;;5.53;70.59;96924.14;2254820;79;21007;-81
2021/11/27 12:18:56;;;;;;;24.73;18.13;;;;;;;5.44;71.20;96924.56;2253267;79;20971;-82
2021/11/27 12:21:57;;;;;;;27.43;18.50;;;;;;;5.36;70.60;96917.64;2254152;79;20963;-82
2021/11/27 12:24:58;;;;;;;25.53;17.07;;;;;;;5.36;70.80;96915.92;2253401;79;21421;-81
2021/11/27 12:27:58;;;;;;;21.50;14.93;;;;;;;5.28;68.14;96924.10;2253507;79;20944;-82
2021/11/27 12:31:01;;;;;;;26.77;16.83;;;;;;;5.20;74.36;96924.52;2232174;79;20955;-81
2021/11/27 12:34:01;;;;;;;26.43;17.93;;;;;;;5.72;69.70;96926.73;2255539;79;21031;-83
2021/11/27 12:37:02;;;;;;;23.40;16.03;;;;;;;5.41;67.11;96936.20;2256112;79;21382;-84
2021/11/27 12:40:03;;;;;;;24.13;17.37;;;;;;;5.11;67.32;96929.64;2255816;79;21081;-82
2021/11/27 12:43:04;;;;;;;28.37;18.20;;;;;;;4.94;68.25;96930.88;2255836;79;21434;-84
2021/11/27 12:46:09;;;;;;;25.93;17.57;;;;;;;4.86;68.81;96941.62;2255408;79;20979;-84
2021/11/27 12:49:07;;;;;;;25.57;17.30;;;;;;;4.81;69.04;96944.62;2254824;79;20976;-84
2021/11/27 12:58:12;;;;;;;32.50;19.00;;;;;;;4.78;69.30;96957.53;2232761;79;21359;-80
2021/11/27 13:01:13;;;;;;;34.83;20.03;;;;;;;4.74;70.08;96946.74;2255194;79;20980;-81
2021/11/27 13:04:18;;;;;;;30.17;19.43;;;;;;;4.72;70.40;96950.61;2255202;79;21386;-81
2021/11/27 13:07:16;;;;;;;35.73;20.67;;;;;;;4.64;70.00;96953.59;2254504;79;20960;-83
2021/11/27 13:10:17;;;;;;;29.77;18.63;;;;;;;4.56;70.24;96944.08;2253524;79;20959;-83
2021/11/27 13:16:25;;;;;;;36.20;21.73;;;;;;;4.39;70.10;96944.84;2236693;78;20935;-85
2021/11/27 13:19:28;;;;;;;34.20;19.90;;;;;;;4.26;70.81;96946.89;2268031;78;20971;-83
2021/11/27 13:22:29;;;;;;;36.87;23.20;;;;;;;4.20;71.32;96953.73;2267982;78;21349;-82
2021/11/27 13:28:37;;;;;;;41.43;25.13;;;;;;;4.04;71.48;96956.64;2235001;78;20971;-81
2021/11/27 13:31:37;;;;;;;45.57;26.20;;;;;;;3.87;71.79;96954.36;2268747;78;20967;-81
2021/11/27 13:34:38;;;;;;;46.03;26.27;;;;;;;3.71;71.90;96954.66;2268696;78;21034;-82
2021/11/27 13:37:39;;;;;;;55.83;28.47;;;;;;;3.59;72.18;96953.27;2268206;78;20975;-80
2021/11/27 13:40:41;;;;;;;60.43;31.53;;;;;;;3.42;72.46;96950.08;2237248;78;20955;-81
2021/11/27 13:43:43;;;;;;;63.30;33.30;;;;;;;3.32;72.71;96948.68;2237199;78;21374;-82
2021/11/27 13:46:44;;;;;;;65.80;35.67;;;;;;;3.23;73.11;96948.59;2268563;78;20975;-80
2021/11/27 13:49:45;;;;;;;60.40;32.17;;;;;;;3.13;73.32;96960.52;2268895;78;20994;-81
2021/11/27 13:52:46;;;;;;;46.53;26.90;;;;;;;3.01;73.78;96965.11;2268509;78;20955;-82
2021/11/27 13:55:47;;;;;;;38.80;23.57;;;;;;;2.89;74.22;96964.98;2268841;78;20994;-82
2021/11/27 13:58:47;;;;;;;32.93;21.00;;;;;;;2.82;74.78;96973.06;2268780;78;20970;-83
2021/11/27 14:01:48;;;;;;;29.97;19.90;;;;;;;2.78;75.16;96976.87;2268830;78;20971;-83
2021/11/27 14:04:49;;;;;;;30.40;18.67;;;;;;;2.72;75.49;96972.50;2268879;78;20971;-83
2021/11/27 14:07:49;;;;;;;39.20;21.57;;;;;;;2.70;75.73;96965.60;2268957;78;21347;-83
2021/11/27 14:10:50;;;;;;;30.20;19.07;;;;;;;2.71;75.82;96965.62;2268830;78;20948;-82
2021/11/27 14:13:50;;;;;;;30.07;18.90;;;;;;;2.70;76.08;96964.31;2268119;78;21432;-82
2021/11/27 14:16:51;;;;;;;31.57;18.50;;;;;;;2.62;76.20;96972.37;2269159;78;21010;-82